sensor_id;sensor_type;location;lat;lon;timestamp;P1;durP1;ratioP1;P2;durP2;ratioP2
45684;SDS011;46836;48.388;16.210;2023-08-31T00:12:11;3.73;;;3.43;;
45684;SDS011;46836;48.388;16.210;2023-08-31T00:14:38;6.50;;;3.80;;
45684;SDS011;46836;48.388;16.210;2023-08-31T00:17:05;3.90;;;3.60;;
45684;SDS011;46836;48.388;16.210;2023-08-31T00:19:32;6.90;;;4.13;;
45684;SDS011;46836;48.388;16.210;2023-08-31T00:22:00;7.93;;;4.00;;
45684;SDS011;46836;48.388;16.210;2023-08-31T00:24:27;3.90;;;3.53;;
45684;SDS011;46836;48.388;16.210;2023-08-31T00:26:58;4.00;;;3.70;;
45684;SDS011;46836;48.388;16.210;2023-08-31T00:29:25;4.27;;;3.97;;
45684;SDS011;46836;48.388;16.210;2023-08-31T00:31:53;4.83;;;4.10;;
45684;SDS011;46836;48.388;16.210;2023-08-31T00:34:20;4.37;;;4.07;;
45684;SDS011;46836;48.388;16.210;2023-08-31T00:36:47;5.40;;;5.00;;
45684;SDS011;46836;48.388;16.210;2023-08-31T00:39:15;4.67;;;4.27;;
45684;SDS011;46836;48.388;16.210;2023-08-31T00:41:47;4.47;;;4.00;;
45684;SDS011;46836;48.388;16.210;2023-08-31T00:44:14;4.30;;;3.90;;
45684;SDS011;46836;48.388;16.210;2023-08-31T00:46:45;4.87;;;4.37;;
45684;SDS011;46836;48.388;16.210;2023-08-31T00:49:12;4.40;;;4.10;;
45684;SDS011;46836;48.388;16.210;2023-08-31T00:51:40;4.93;;;4.40;;
45684;SDS011;46836;48.388;16.210;2023-08-31T00:54:09;5.03;;;4.63;;
45684;SDS011;46836;48.388;16.210;2023-08-31T00:56:36;4.70;;;4.30;;
45684;SDS011;46836;48.388;16.210;2023-08-31T00:59:03;5.03;;;4.63;;
45684;SDS011;46836;48.388;16.210;2023-08-31T01:01:37;5.27;;;4.77;;
45684;SDS011;46836;48.388;16.210;2023-08-31T01:04:14;4.57;;;4.27;;
45684;SDS011;46836;48.388;16.210;2023-08-31T01:12:50;4.77;;;4.40;;
45684;SDS011;46836;48.388;16.210;2023-08-31T01:15:27;6.07;;;5.10;;
45684;SDS011;46836;48.388;16.210;2023-08-31T01:17:58;5.23;;;4.83;;
45684;SDS011;46836;48.388;16.210;2023-08-31T01:20:44;6.70;;;5.23;;
45684;SDS011;46836;48.388;16.210;2023-08-31T01:24:06;7.00;;;4.80;;
45684;SDS011;46836;48.388;16.210;2023-08-31T01:26:26;5.07;;;4.57;;
45684;SDS011;46836;48.388;16.210;2023-08-31T01:28:54;6.63;;;5.83;;
45684;SDS011;46836;48.388;16.210;2023-08-31T01:31:22;5.63;;;5.23;;
45684;SDS011;46836;48.388;16.210;2023-08-31T01:33:49;6.03;;;5.43;;
45684;SDS011;46836;48.388;16.210;2023-08-31T01:36:27;5.10;;;4.60;;
45684;SDS011;46836;48.388;16.210;2023-08-31T01:39:15;4.90;;;4.50;;
45684;SDS011;46836;48.388;16.210;2023-08-31T01:41:51;6.40;;;5.90;;
45684;SDS011;46836;48.388;16.210;2023-08-31T01:44:22;5.83;;;5.43;;
45684;SDS011;46836;48.388;16.210;2023-08-31T01:46:52;6.33;;;5.70;;
45684;SDS011;46836;48.388;16.210;2023-08-31T01:49:22;8.00;;;5.37;;
45684;SDS011;46836;48.388;16.210;2023-08-31T01:51:51;7.93;;;5.97;;
45684;SDS011;46836;48.388;16.210;2023-08-31T01:54:18;7.20;;;5.97;;
45684;SDS011;46836;48.388;16.210;2023-08-31T01:56:45;6.00;;;5.50;;
45684;SDS011;46836;48.388;16.210;2023-08-31T01:59:12;7.03;;;6.00;;
45684;SDS011;46836;48.388;16.210;2023-08-31T02:01:39;5.80;;;5.30;;
45684;SDS011;46836;48.388;16.210;2023-08-31T02:04:06;5.80;;;5.27;;
45684;SDS011;46836;48.388;16.210;2023-08-31T02:06:33;5.83;;;5.33;;
45684;SDS011;46836;48.388;16.210;2023-08-31T02:09:00;6.80;;;6.17;;
45684;SDS011;46836;48.388;16.210;2023-08-31T02:11:27;6.27;;;5.77;;
45684;SDS011;46836;48.388;16.210;2023-08-31T02:13:54;6.47;;;5.87;;
45684;SDS011;46836;48.388;16.210;2023-08-31T02:16:21;6.67;;;6.07;;
45684;SDS011;46836;48.388;16.210;2023-08-31T02:18:48;7.00;;;5.37;;
45684;SDS011;46836;48.388;16.210;2023-08-31T02:21:15;5.93;;;5.43;;
45684;SDS011;46836;48.388;16.210;2023-08-31T02:23:42;5.72;;;5.22;;
45684;SDS011;46836;48.388;16.210;2023-08-31T02:26:11;6.30;;;5.80;;
45684;SDS011;46836;48.388;16.210;2023-08-31T02:28:38;5.20;;;4.80;;
45684;SDS011;46836;48.388;16.210;2023-08-31T02:31:05;5.57;;;5.07;;
45684;SDS011;46836;48.388;16.210;2023-08-31T02:33:32;5.63;;;5.23;;
45684;SDS011;46836;48.388;16.210;2023-08-31T02:35:59;5.20;;;4.70;;
45684;SDS011;46836;48.388;16.210;2023-08-31T02:38:26;4.83;;;4.53;;
45684;SDS011;46836;48.388;16.210;2023-08-31T02:40:53;4.27;;;3.83;;
45684;SDS011;46836;48.388;16.210;2023-08-31T02:43:20;5.50;;;5.10;;
45684;SDS011;46836;48.388;16.210;2023-08-31T02:45:47;5.07;;;4.63;;
45684;SDS011;46836;48.388;16.210;2023-08-31T02:48:14;5.30;;;4.87;;
45684;SDS011;46836;48.388;16.210;2023-08-31T02:50:41;4.90;;;4.47;;
45684;SDS011;46836;48.388;16.210;2023-08-31T02:53:08;5.20;;;4.80;;
45684;SDS011;46836;48.388;16.210;2023-08-31T02:55:36;5.30;;;4.80;;
45684;SDS011;46836;48.388;16.210;2023-08-31T02:58:03;4.95;;;4.50;;
45684;SDS011;46836;48.388;16.210;2023-08-31T03:00:30;5.10;;;4.68;;
45684;SDS011;46836;48.388;16.210;2023-08-31T03:03:00;4.90;;;4.50;;
45684;SDS011;46836;48.388;16.210;2023-08-31T03:05:27;4.75;;;4.35;;
45684;SDS011;46836;48.388;16.210;2023-08-31T03:07:54;8.40;;;6.13;;
45684;SDS011;46836;48.388;16.210;2023-08-31T03:10:21;5.20;;;4.70;;
45684;SDS011;46836;48.388;16.210;2023-08-31T03:12:48;5.03;;;4.63;;
45684;SDS011;46836;48.388;16.210;2023-08-31T03:15:16;5.07;;;4.67;;
45684;SDS011;46836;48.388;16.210;2023-08-31T03:17:43;6.10;;;5.60;;
45684;SDS011;46836;48.388;16.210;2023-08-31T03:20:10;6.73;;;4.60;;
45684;SDS011;46836;48.388;16.210;2023-08-31T03:22:37;5.22;;;4.55;;
45684;SDS011;46836;48.388;16.210;2023-08-31T03:25:04;5.03;;;4.63;;
45684;SDS011;46836;48.388;16.210;2023-08-31T03:27:31;5.10;;;4.70;;
45684;SDS011;46836;48.388;16.210;2023-08-31T03:29:58;5.33;;;4.83;;
45684;SDS011;46836;48.388;16.210;2023-08-31T03:32:25;4.87;;;4.47;;
45684;SDS011;46836;48.388;16.210;2023-08-31T03:34:52;5.10;;;4.60;;
45684;SDS011;46836;48.388;16.210;2023-08-31T03:37:19;5.00;;;4.60;;
45684;SDS011;46836;48.388;16.210;2023-08-31T03:39:48;6.20;;;4.60;;
45684;SDS011;46836;48.388;16.210;2023-08-31T03:42:15;5.37;;;4.87;;
45684;SDS011;46836;48.388;16.210;2023-08-31T03:44:42;4.53;;;4.22;;
45684;SDS011;46836;48.388;16.210;2023-08-31T03:47:09;5.00;;;4.60;;
45684;SDS011;46836;48.388;16.210;2023-08-31T03:49:36;5.37;;;4.37;;
45684;SDS011;46836;48.388;16.210;2023-08-31T03:52:03;5.23;;;4.40;;
45684;SDS011;46836;48.388;16.210;2023-08-31T03:54:30;5.05;;;4.55;;
45684;SDS011;46836;48.388;16.210;2023-08-31T03:56:57;5.82;;;5.22;;
45684;SDS011;46836;48.388;16.210;2023-08-31T03:59:24;6.00;;;4.60;;
45684;SDS011;46836;48.388;16.210;2023-08-31T04:01:51;4.70;;;4.30;;
45684;SDS011;46836;48.388;16.210;2023-08-31T04:04:19;5.43;;;5.03;;
45684;SDS011;46836;48.388;16.210;2023-08-31T04:06:46;5.40;;;4.90;;
45684;SDS011;46836;48.388;16.210;2023-08-31T04:09:13;5.20;;;4.70;;
45684;SDS011;46836;48.388;16.210;2023-08-31T04:11:40;8.03;;;5.57;;
45684;SDS011;46836;48.388;16.210;2023-08-31T04:14:07;5.20;;;4.80;;
45684;SDS011;46836;48.388;16.210;2023-08-31T04:16:34;6.57;;;5.82;;
45684;SDS011;46836;48.388;16.210;2023-08-31T04:19:01;5.10;;;4.60;;
45684;SDS011;46836;48.388;16.210;2023-08-31T04:21:28;5.50;;;5.00;;
45684;SDS011;46836;48.388;16.210;2023-08-31T04:23:55;7.70;;;5.28;;
45684;SDS011;46836;48.388;16.210;2023-08-31T04:26:22;5.50;;;4.97;;
45684;SDS011;46836;48.388;16.210;2023-08-31T04:28:50;5.65;;;4.90;;
45684;SDS011;46836;48.388;16.210;2023-08-31T04:31:18;6.47;;;5.97;;
45684;SDS011;46836;48.388;16.210;2023-08-31T04:33:45;5.97;;;5.47;;
45684;SDS011;46836;48.388;16.210;2023-08-31T04:36:12;5.13;;;4.45;;
45684;SDS011;46836;48.388;16.210;2023-08-31T04:38:39;5.45;;;5.05;;
45684;SDS011;46836;48.388;16.210;2023-08-31T04:41:06;7.38;;;5.13;;
45684;SDS011;46836;48.388;16.210;2023-08-31T04:43:34;5.32;;;4.82;;
45684;SDS011;46836;48.388;16.210;2023-08-31T04:46:01;6.20;;;4.88;;
45684;SDS011;46836;48.388;16.210;2023-08-31T04:48:30;5.22;;;4.50;;
45684;SDS011;46836;48.388;16.210;2023-08-31T04:50:57;5.93;;;5.47;;
45684;SDS011;46836;48.388;16.210;2023-08-31T04:53:25;5.70;;;5.20;;
45684;SDS011;46836;48.388;16.210;2023-08-31T04:55:52;5.75;;;5.03;;
45684;SDS011;46836;48.388;16.210;2023-08-31T04:58:19;6.28;;;4.90;;
45684;SDS011;46836;48.388;16.210;2023-08-31T05:00:46;4.88;;;4.47;;
45684;SDS011;46836;48.388;16.210;2023-08-31T05:03:14;6.10;;;5.28;;
45684;SDS011;46836;48.388;16.210;2023-08-31T05:05:41;5.70;;;5.25;;
45684;SDS011;46836;48.388;16.210;2023-08-31T05:08:09;5.13;;;4.63;;
45684;SDS011;46836;48.388;16.210;2023-08-31T05:10:36;5.75;;;4.85;;
45684;SDS011;46836;48.388;16.210;2023-08-31T05:13:03;7.15;;;5.47;;
45684;SDS011;46836;48.388;16.210;2023-08-31T05:15:30;5.63;;;5.22;;
45684;SDS011;46836;48.388;16.210;2023-08-31T05:18:00;9.45;;;5.40;;
45684;SDS011;46836;48.388;16.210;2023-08-31T05:20:27;4.82;;;4.43;;
45684;SDS011;46836;48.388;16.210;2023-08-31T05:22:54;5.50;;;5.00;;
45684;SDS011;46836;48.388;16.210;2023-08-31T05:25:21;5.10;;;4.72;;
45684;SDS011;46836;48.388;16.210;2023-08-31T05:27:48;5.78;;;5.07;;
45684;SDS011;46836;48.388;16.210;2023-08-31T05:30:15;5.50;;;5.10;;
45684;SDS011;46836;48.388;16.210;2023-08-31T05:32:43;6.03;;;4.60;;
45684;SDS011;46836;48.388;16.210;2023-08-31T05:35:10;4.90;;;4.05;;
45684;SDS011;46836;48.388;16.210;2023-08-31T05:37:37;5.13;;;4.73;;
45684;SDS011;46836;48.388;16.210;2023-08-31T05:40:05;5.03;;;4.63;;
45684;SDS011;46836;48.388;16.210;2023-08-31T05:42:37;7.63;;;4.93;;
45684;SDS011;46836;48.388;16.210;2023-08-31T05:45:04;4.90;;;4.50;;
45684;SDS011;46836;48.388;16.210;2023-08-31T05:47:31;6.70;;;4.50;;
45684;SDS011;46836;48.388;16.210;2023-08-31T05:49:58;5.13;;;4.73;;
45684;SDS011;46836;48.388;16.210;2023-08-31T05:52:26;7.68;;;4.70;;
45684;SDS011;46836;48.388;16.210;2023-08-31T05:54:53;4.90;;;4.43;;
45684;SDS011;46836;48.388;16.210;2023-08-31T05:57:21;4.90;;;4.50;;
45684;SDS011;46836;48.388;16.210;2023-08-31T05:59:49;5.07;;;4.70;;
45684;SDS011;46836;48.388;16.210;2023-08-31T06:02:16;4.80;;;4.30;;
45684;SDS011;46836;48.388;16.210;2023-08-31T06:04:43;5.50;;;5.00;;
45684;SDS011;46836;48.388;16.210;2023-08-31T06:07:10;5.50;;;5.10;;
45684;SDS011;46836;48.388;16.210;2023-08-31T06:09:37;5.10;;;4.70;;
45684;SDS011;46836;48.388;16.210;2023-08-31T06:12:05;4.90;;;4.50;;
45684;SDS011;46836;48.388;16.210;2023-08-31T06:14:33;8.73;;;4.97;;
45684;SDS011;46836;48.388;16.210;2023-08-31T06:17:00;5.13;;;4.63;;
45684;SDS011;46836;48.388;16.210;2023-08-31T06:19:27;4.97;;;4.13;;
45684;SDS011;46836;48.388;16.210;2023-08-31T06:21:54;6.80;;;4.20;;
45684;SDS011;46836;48.388;16.210;2023-08-31T06:24:21;5.03;;;4.63;;
45684;SDS011;46836;48.388;16.210;2023-08-31T06:26:49;5.97;;;4.27;;
45684;SDS011;46836;48.388;16.210;2023-08-31T06:29:16;4.43;;;4.13;;
45684;SDS011;46836;48.388;16.210;2023-08-31T06:31:44;4.27;;;3.93;;
45684;SDS011;46836;48.388;16.210;2023-08-31T06:34:11;3.73;;;3.43;;
45684;SDS011;46836;48.388;16.210;2023-08-31T06:36:38;4.27;;;3.87;;
45684;SDS011;46836;48.388;16.210;2023-08-31T06:39:05;5.67;;;3.77;;
45684;SDS011;46836;48.388;16.210;2023-08-31T06:41:33;6.50;;;3.90;;
45684;SDS011;46836;48.388;16.210;2023-08-31T06:44:01;6.37;;;3.90;;
45684;SDS011;46836;48.388;16.210;2023-08-31T06:46:28;4.83;;;3.80;;
45684;SDS011;46836;48.388;16.210;2023-08-31T06:48:56;4.27;;;3.90;;
45684;SDS011;46836;48.388;16.210;2023-08-31T06:51:23;3.63;;;3.30;;
45684;SDS011;46836;48.388;16.210;2023-08-31T06:53:50;3.73;;;3.53;;
45684;SDS011;46836;48.388;16.210;2023-08-31T06:56:18;7.20;;;3.43;;
45684;SDS011;46836;48.388;16.210;2023-08-31T06:58:45;5.17;;;3.80;;
45684;SDS011;46836;48.388;16.210;2023-08-31T07:01:12;3.67;;;3.37;;
45684;SDS011;46836;48.388;16.210;2023-08-31T07:03:40;3.23;;;3.03;;
45684;SDS011;46836;48.388;16.210;2023-08-31T07:06:07;5.40;;;3.33;;
45684;SDS011;46836;48.388;16.210;2023-08-31T07:08:34;3.50;;;3.20;;
45684;SDS011;46836;48.388;16.210;2023-08-31T07:11:03;3.53;;;3.23;;
45684;SDS011;46836;48.388;16.210;2023-08-31T07:13:30;3.70;;;3.20;;
45684;SDS011;46836;48.388;16.210;2023-08-31T07:15:57;3.53;;;3.23;;
45684;SDS011;46836;48.388;16.210;2023-08-31T07:18:24;3.40;;;3.10;;
45684;SDS011;46836;48.388;16.210;2023-08-31T07:20:51;5.70;;;3.30;;
45684;SDS011;46836;48.388;16.210;2023-08-31T07:23:19;3.13;;;2.87;;
45684;SDS011;46836;48.388;16.210;2023-08-31T07:25:46;3.30;;;3.03;;
45684;SDS011;46836;48.388;16.210;2023-08-31T07:28:13;3.37;;;3.07;;
45684;SDS011;46836;48.388;16.210;2023-08-31T07:30:40;3.57;;;3.27;;
45684;SDS011;46836;48.388;16.210;2023-08-31T07:33:07;3.80;;;3.03;;
45684;SDS011;46836;48.388;16.210;2023-08-31T07:35:54;2.90;;;2.70;;
45684;SDS011;46836;48.388;16.210;2023-08-31T07:38:23;6.37;;;3.80;;
45684;SDS011;46836;48.388;16.210;2023-08-31T07:40:52;3.43;;;2.83;;
45684;SDS011;46836;48.388;16.210;2023-08-31T07:43:19;3.47;;;3.17;;
45684;SDS011;46836;48.388;16.210;2023-08-31T07:45:47;4.03;;;3.20;;
45684;SDS011;46836;48.388;16.210;2023-08-31T07:48:14;3.37;;;3.07;;
45684;SDS011;46836;48.388;16.210;2023-08-31T07:50:41;2.97;;;2.77;;
45684;SDS011;46836;48.388;16.210;2023-08-31T07:53:09;5.03;;;3.63;;
45684;SDS011;46836;48.388;16.210;2023-08-31T07:55:37;4.50;;;3.30;;
45684;SDS011;46836;48.388;16.210;2023-08-31T07:58:05;3.83;;;3.53;;
45684;SDS011;46836;48.388;16.210;2023-08-31T08:00:32;4.33;;;3.73;;
45684;SDS011;46836;48.388;16.210;2023-08-31T08:03:00;3.40;;;3.13;;
45684;SDS011;46836;48.388;16.210;2023-08-31T08:05:27;3.90;;;3.60;;
45684;SDS011;46836;48.388;16.210;2023-08-31T08:07:54;3.70;;;3.40;;
45684;SDS011;46836;48.388;16.210;2023-08-31T08:10:21;3.93;;;3.63;;
45684;SDS011;46836;48.388;16.210;2023-08-31T08:12:48;4.10;;;3.80;;
45684;SDS011;46836;48.388;16.210;2023-08-31T08:15:15;3.50;;;3.30;;
45684;SDS011;46836;48.388;16.210;2023-08-31T08:17:42;3.57;;;3.27;;
45684;SDS011;46836;48.388;16.210;2023-08-31T08:20:09;3.60;;;3.30;;
45684;SDS011;46836;48.388;16.210;2023-08-31T08:22:37;4.43;;;4.03;;
45684;SDS011;46836;48.388;16.210;2023-08-31T08:25:04;4.30;;;3.90;;
45684;SDS011;46836;48.388;16.210;2023-08-31T08:27:32;4.73;;;3.73;;
45684;SDS011;46836;48.388;16.210;2023-08-31T08:29:59;3.73;;;3.43;;
45684;SDS011;46836;48.388;16.210;2023-08-31T08:32:26;3.33;;;3.03;;
45684;SDS011;46836;48.388;16.210;2023-08-31T08:34:54;3.50;;;3.10;;
45684;SDS011;46836;48.388;16.210;2023-08-31T08:37:21;4.67;;;3.57;;
45684;SDS011;46836;48.388;16.210;2023-08-31T08:39:48;3.53;;;3.23;;
45684;SDS011;46836;48.388;16.210;2023-08-31T08:42:19;4.03;;;3.73;;
45684;SDS011;46836;48.388;16.210;2023-08-31T08:44:50;4.07;;;3.67;;
45684;SDS011;46836;48.388;16.210;2023-08-31T08:47:18;3.80;;;3.50;;
45684;SDS011;46836;48.388;16.210;2023-08-31T08:49:46;3.63;;;3.33;;
45684;SDS011;46836;48.388;16.210;2023-08-31T08:52:14;4.07;;;3.77;;
45684;SDS011;46836;48.388;16.210;2023-08-31T08:54:42;4.37;;;3.73;;
45684;SDS011;46836;48.388;16.210;2023-08-31T08:57:10;11.00;;;4.17;;
45684;SDS011;46836;48.388;16.210;2023-08-31T08:59:37;3.80;;;3.50;;
45684;SDS011;46836;48.388;16.210;2023-08-31T09:02:04;3.70;;;3.10;;
45684;SDS011;46836;48.388;16.210;2023-08-31T09:04:32;3.70;;;3.40;;
45684;SDS011;46836;48.388;16.210;2023-08-31T09:06:59;3.00;;;2.80;;
45684;SDS011;46836;48.388;16.210;2023-08-31T09:09:26;3.90;;;3.47;;
45684;SDS011;46836;48.388;16.210;2023-08-31T09:11:54;3.67;;;3.37;;
45684;SDS011;46836;48.388;16.210;2023-08-31T09:14:22;6.20;;;3.20;;
45684;SDS011;46836;48.388;16.210;2023-08-31T09:16:50;4.03;;;3.27;;
45684;SDS011;46836;48.388;16.210;2023-08-31T09:19:19;3.40;;;3.20;;
45684;SDS011;46836;48.388;16.210;2023-08-31T09:21:48;3.50;;;3.20;;
45684;SDS011;46836;48.388;16.210;2023-08-31T09:24:16;3.73;;;3.43;;
45684;SDS011;46836;48.388;16.210;2023-08-31T09:26:45;4.33;;;3.40;;
45684;SDS011;46836;48.388;16.210;2023-08-31T09:29:14;3.83;;;2.77;;
45684;SDS011;46836;48.388;16.210;2023-08-31T09:31:42;3.13;;;2.90;;
45684;SDS011;46836;48.388;16.210;2023-08-31T09:34:10;3.10;;;2.60;;
45684;SDS011;46836;48.388;16.210;2023-08-31T09:36:38;3.03;;;2.83;;
45684;SDS011;46836;48.388;16.210;2023-08-31T09:39:05;3.67;;;3.37;;
45684;SDS011;46836;48.388;16.210;2023-08-31T09:41:33;3.43;;;3.13;;
45684;SDS011;46836;48.388;16.210;2023-08-31T09:44:15;4.23;;;3.03;;
45684;SDS011;46836;48.388;16.210;2023-08-31T09:46:44;5.70;;;2.93;;
45684;SDS011;46836;48.388;16.210;2023-08-31T09:49:15;3.77;;;3.00;;
45684;SDS011;46836;48.388;16.210;2023-08-31T09:51:46;2.77;;;2.57;;
45684;SDS011;46836;48.388;16.210;2023-08-31T09:54:21;7.03;;;2.77;;
45684;SDS011;46836;48.388;16.210;2023-08-31T09:56:49;3.10;;;2.80;;
45684;SDS011;46836;48.388;16.210;2023-08-31T09:59:19;2.90;;;2.70;;
45684;SDS011;46836;48.388;16.210;2023-08-31T10:01:46;2.80;;;2.60;;
45684;SDS011;46836;48.388;16.210;2023-08-31T10:04:14;3.30;;;2.90;;
45684;SDS011;46836;48.388;16.210;2023-08-31T10:06:42;3.10;;;2.83;;
45684;SDS011;46836;48.388;16.210;2023-08-31T10:09:10;3.20;;;3.00;;
45684;SDS011;46836;48.388;16.210;2023-08-31T10:11:38;2.80;;;2.60;;
45684;SDS011;46836;48.388;16.210;2023-08-31T10:14:06;2.97;;;2.77;;
45684;SDS011;46836;48.388;16.210;2023-08-31T10:16:35;4.40;;;2.97;;
45684;SDS011;46836;48.388;16.210;2023-08-31T10:19:07;3.20;;;3.00;;
45684;SDS011;46836;48.388;16.210;2023-08-31T10:21:34;3.13;;;2.93;;
45684;SDS011;46836;48.388;16.210;2023-08-31T10:24:02;3.10;;;2.90;;
45684;SDS011;46836;48.388;16.210;2023-08-31T10:26:30;3.13;;;2.83;;
45684;SDS011;46836;48.388;16.210;2023-08-31T10:28:58;3.93;;;2.83;;
45684;SDS011;46836;48.388;16.210;2023-08-31T10:31:30;3.90;;;2.50;;
45684;SDS011;46836;48.388;16.210;2023-08-31T10:33:59;3.10;;;2.40;;
45684;SDS011;46836;48.388;16.210;2023-08-31T10:39:25;3.33;;;2.33;;
45684;SDS011;46836;48.388;16.210;2023-08-31T10:42:03;4.20;;;2.23;;
45684;SDS011;46836;48.388;16.210;2023-08-31T10:44:30;1.97;;;1.87;;
45684;SDS011;46836;48.388;16.210;2023-08-31T10:47:03;2.70;;;2.03;;
45684;SDS011;46836;48.388;16.210;2023-08-31T10:49:30;4.50;;;2.17;;
45684;SDS011;46836;48.388;16.210;2023-08-31T10:52:16;3.10;;;2.20;;
45684;SDS011;46836;48.388;16.210;2023-08-31T10:54:51;2.50;;;2.30;;
45684;SDS011;46836;48.388;16.210;2023-08-31T10:57:30;2.80;;;2.37;;
45684;SDS011;46836;48.388;16.210;2023-08-31T10:59:58;3.33;;;2.27;;
45684;SDS011;46836;48.388;16.210;2023-08-31T11:07:33;2.30;;;2.10;;
45684;SDS011;46836;48.388;16.210;2023-08-31T11:10:07;2.20;;;2.00;;
45684;SDS011;46836;48.388;16.210;2023-08-31T11:12:36;2.63;;;1.80;;
45684;SDS011;46836;48.388;16.210;2023-08-31T11:15:04;2.63;;;2.10;;
45684;SDS011;46836;48.388;16.210;2023-08-31T11:17:32;1.90;;;1.70;;
45684;SDS011;46836;48.388;16.210;2023-08-31T11:19:59;1.80;;;1.70;;
45684;SDS011;46836;48.388;16.210;2023-08-31T11:22:28;2.23;;;1.80;;
45684;SDS011;46836;48.388;16.210;2023-08-31T11:24:56;3.70;;;1.80;;
45684;SDS011;46836;48.388;16.210;2023-08-31T11:27:23;2.50;;;2.00;;
45684;SDS011;46836;48.388;16.210;2023-08-31T11:29:51;2.63;;;1.80;;
45684;SDS011;46836;48.388;16.210;2023-08-31T11:32:18;2.57;;;2.00;;
45684;SDS011;46836;48.388;16.210;2023-08-31T11:34:45;1.87;;;1.73;;
45684;SDS011;46836;48.388;16.210;2023-08-31T11:37:13;1.90;;;1.70;;
45684;SDS011;46836;48.388;16.210;2023-08-31T11:39:49;3.47;;;2.20;;
45684;SDS011;46836;48.388;16.210;2023-08-31T11:42:18;1.87;;;1.63;;
45684;SDS011;46836;48.388;16.210;2023-08-31T11:44:47;1.87;;;1.67;;
45684;SDS011;46836;48.388;16.210;2023-08-31T11:47:15;2.40;;;1.70;;
45684;SDS011;46836;48.388;16.210;2023-08-31T11:49:43;1.90;;;1.70;;
45684;SDS011;46836;48.388;16.210;2023-08-31T11:52:12;2.13;;;1.60;;
45684;SDS011;46836;48.388;16.210;2023-08-31T11:54:41;1.70;;;1.60;;
45684;SDS011;46836;48.388;16.210;2023-08-31T11:57:09;2.30;;;1.87;;
45684;SDS011;46836;48.388;16.210;2023-08-31T11:59:37;2.20;;;2.00;;
45684;SDS011;46836;48.388;16.210;2023-08-31T12:02:06;2.40;;;1.57;;
45684;SDS011;46836;48.388;16.210;2023-08-31T12:04:43;5.13;;;1.73;;
45684;SDS011;46836;48.388;16.210;2023-08-31T12:07:12;2.10;;;1.90;;
45684;SDS011;46836;48.388;16.210;2023-08-31T12:09:43;4.73;;;2.00;;
45684;SDS011;46836;48.388;16.210;2023-08-31T12:12:14;2.17;;;1.97;;
45684;SDS011;46836;48.388;16.210;2023-08-31T12:14:44;2.50;;;2.30;;
45684;SDS011;46836;48.388;16.210;2023-08-31T12:17:11;2.17;;;1.77;;
45684;SDS011;46836;48.388;16.210;2023-08-31T12:19:40;1.60;;;1.50;;
45684;SDS011;46836;48.388;16.210;2023-08-31T12:22:08;2.13;;;1.93;;
45684;SDS011;46836;48.388;16.210;2023-08-31T12:24:40;3.17;;;1.90;;
45684;SDS011;46836;48.388;16.210;2023-08-31T12:27:08;5.63;;;1.70;;
45684;SDS011;46836;48.388;16.210;2023-08-31T12:29:36;1.77;;;1.43;;
45684;SDS011;46836;48.388;16.210;2023-08-31T12:32:03;1.67;;;1.57;;
45684;SDS011;46836;48.388;16.210;2023-08-31T12:34:31;2.47;;;1.63;;
45684;SDS011;46836;48.388;16.210;2023-08-31T12:36:58;1.90;;;1.67;;
45684;SDS011;46836;48.388;16.210;2023-08-31T12:39:28;4.10;;;1.60;;
45684;SDS011;46836;48.388;16.210;2023-08-31T12:41:55;1.80;;;1.57;;
45684;SDS011;46836;48.388;16.210;2023-08-31T12:44:38;3.23;;;1.77;;
45684;SDS011;46836;48.388;16.210;2023-08-31T12:47:05;3.40;;;1.60;;
45684;SDS011;46836;48.388;16.210;2023-08-31T12:49:32;2.50;;;1.63;;
45684;SDS011;46836;48.388;16.210;2023-08-31T12:51:59;2.00;;;1.63;;
45684;SDS011;46836;48.388;16.210;2023-08-31T12:54:26;2.37;;;1.90;;
45684;SDS011;46836;48.388;16.210;2023-08-31T12:56:53;2.40;;;1.50;;
45684;SDS011;46836;48.388;16.210;2023-08-31T12:59:20;1.90;;;1.77;;
45684;SDS011;46836;48.388;16.210;2023-08-31T13:01:47;1.73;;;1.50;;
45684;SDS011;46836;48.388;16.210;2023-08-31T13:04:14;3.20;;;1.70;;
45684;SDS011;46836;48.388;16.210;2023-08-31T13:06:41;3.27;;;1.53;;
45684;SDS011;46836;48.388;16.210;2023-08-31T13:09:08;1.53;;;1.43;;
45684;SDS011;46836;48.388;16.210;2023-08-31T13:11:35;3.20;;;1.77;;
45684;SDS011;46836;48.388;16.210;2023-08-31T13:14:02;1.83;;;1.70;;
45684;SDS011;46836;48.388;16.210;2023-08-31T13:16:29;3.80;;;1.80;;
45684;SDS011;46836;48.388;16.210;2023-08-31T13:18:58;2.60;;;1.87;;
45684;SDS011;46836;48.388;16.210;2023-08-31T13:21:25;2.47;;;1.63;;
45684;SDS011;46836;48.388;16.210;2023-08-31T13:23:52;2.00;;;1.40;;
45684;SDS011;46836;48.388;16.210;2023-08-31T13:26:19;3.00;;;1.80;;
45684;SDS011;46836;48.388;16.210;2023-08-31T13:28:46;2.43;;;1.80;;
45684;SDS011;46836;48.388;16.210;2023-08-31T13:31:14;3.00;;;1.80;;
45684;SDS011;46836;48.388;16.210;2023-08-31T13:33:41;2.20;;;1.60;;
45684;SDS011;46836;48.388;16.210;2023-08-31T13:36:09;3.67;;;2.23;;
45684;SDS011;46836;48.388;16.210;2023-08-31T13:38:36;1.83;;;1.60;;
45684;SDS011;46836;48.388;16.210;2023-08-31T13:41:03;2.70;;;2.00;;
45684;SDS011;46836;48.388;16.210;2023-08-31T13:43:30;1.80;;;1.60;;
45684;SDS011;46836;48.388;16.210;2023-08-31T13:45:57;3.30;;;1.93;;
45684;SDS011;46836;48.388;16.210;2023-08-31T13:48:24;2.70;;;2.20;;
45684;SDS011;46836;48.388;16.210;2023-08-31T13:50:51;2.10;;;1.90;;
45684;SDS011;46836;48.388;16.210;2023-08-31T13:53:18;2.40;;;1.77;;
45684;SDS011;46836;48.388;16.210;2023-08-31T13:55:46;2.47;;;2.17;;
45684;SDS011;46836;48.388;16.210;2023-08-31T13:58:13;3.70;;;1.97;;
45684;SDS011;46836;48.388;16.210;2023-08-31T14:00:41;2.77;;;1.87;;
45684;SDS011;46836;48.388;16.210;2023-08-31T14:03:08;2.47;;;2.10;;
45684;SDS011;46836;48.388;16.210;2023-08-31T14:05:36;2.50;;;1.70;;
45684;SDS011;46836;48.388;16.210;2023-08-31T14:08:04;2.47;;;1.80;;
45684;SDS011;46836;48.388;16.210;2023-08-31T14:10:31;2.23;;;1.80;;
45684;SDS011;46836;48.388;16.210;2023-08-31T14:13:01;2.10;;;1.83;;
45684;SDS011;46836;48.388;16.210;2023-08-31T14:15:28;2.00;;;1.60;;
45684;SDS011;46836;48.388;16.210;2023-08-31T14:17:55;4.47;;;2.73;;
45684;SDS011;46836;48.388;16.210;2023-08-31T14:20:23;2.83;;;2.20;;
45684;SDS011;46836;48.388;16.210;2023-08-31T14:22:50;3.80;;;1.90;;
45684;SDS011;46836;48.388;16.210;2023-08-31T14:25:17;3.30;;;1.67;;
45684;SDS011;46836;48.388;16.210;2023-08-31T14:27:46;2.40;;;1.80;;
45684;SDS011;46836;48.388;16.210;2023-08-31T14:30:13;3.70;;;1.67;;
45684;SDS011;46836;48.388;16.210;2023-08-31T14:32:40;2.70;;;1.80;;
45684;SDS011;46836;48.388;16.210;2023-08-31T14:35:07;2.40;;;2.00;;
45684;SDS011;46836;48.388;16.210;2023-08-31T14:37:35;1.70;;;1.57;;
45684;SDS011;46836;48.388;16.210;2023-08-31T14:40:02;2.70;;;1.50;;
45684;SDS011;46836;48.388;16.210;2023-08-31T14:42:33;4.70;;;2.20;;
45684;SDS011;46836;48.388;16.210;2023-08-31T14:45:02;2.77;;;1.80;;
45684;SDS011;46836;48.388;16.210;2023-08-31T14:47:30;3.23;;;2.10;;
45684;SDS011;46836;48.388;16.210;2023-08-31T14:49:57;4.03;;;1.63;;
45684;SDS011;46836;48.388;16.210;2023-08-31T14:52:25;2.60;;;2.03;;
45684;SDS011;46836;48.388;16.210;2023-08-31T14:54:56;3.03;;;1.77;;
45684;SDS011;46836;48.388;16.210;2023-08-31T14:57:24;3.00;;;2.20;;
45684;SDS011;46836;48.388;16.210;2023-08-31T14:59:51;2.40;;;1.90;;
45684;SDS011;46836;48.388;16.210;2023-08-31T15:02:20;4.13;;;1.73;;
45684;SDS011;46836;48.388;16.210;2023-08-31T15:04:48;2.67;;;2.30;;